sensor_id;sensor_type;location;lat;lon;timestamp;pressure;altitude;pressure_sealevel;temperature;humidity
46045;BME280;31781;54.094;13.428;2022-08-04T00:02:01;101518.84;;;23.94;55.19
46045;BME280;31781;54.094;13.428;2022-08-04T00:07:15;101520.78;;;23.89;54.05
46045;BME280;31781;54.094;13.428;2022-08-04T00:12:21;101521.63;;;23.84;54.83
46045;BME280;31781;54.094;13.428;2022-08-04T00:17:37;101519.97;;;23.78;56.98
46045;BME280;31781;54.094;13.428;2022-08-04T00:22:47;101521.87;;;23.72;56.12
46045;BME280;31781;54.094;13.428;2022-08-04T00:27:50;101513.84;;;23.66;54.98
46045;BME280;31781;54.094;13.428;2022-08-04T00:32:55;101516.06;;;23.59;57.79
46045;BME280;31781;54.094;13.428;2022-08-04T00:38:04;101509.69;;;23.53;57.71
46045;BME280;31781;54.094;13.428;2022-08-04T00:43:13;101515.75;;;23.50;56.01
46045;BME280;31781;54.094;13.428;2022-08-04T00:48:27;101510.22;;;23.45;55.79
46045;BME280;31781;54.094;13.428;2022-08-04T00:53:46;101506.84;;;23.38;55.38
46045;BME280;31781;54.094;13.428;2022-08-04T00:59:02;101503.22;;;23.33;56.15
46045;BME280;31781;54.094;13.428;2022-08-04T01:04:11;101506.25;;;23.26;56.95
46045;BME280;31781;54.094;13.428;2022-08-04T01:09:40;101497.63;;;23.17;57.98
46045;BME280;31781;54.094;13.428;2022-08-04T01:25:57;101504.56;;;23.05;54.82
46045;BME280;31781;54.094;13.428;2022-08-04T01:31:33;101490.09;;;22.93;54.37
46045;BME280;31781;54.094;13.428;2022-08-04T01:36:44;101494.22;;;22.85;56.18
46045;BME280;31781;54.094;13.428;2022-08-04T01:41:51;101500.03;;;22.78;56.94
46045;BME280;31781;54.094;13.428;2022-08-04T01:52:23;101486.72;;;22.75;54.76
46045;BME280;31781;54.094;13.428;2022-08-04T01:57:31;101488.28;;;22.66;58.77
46045;BME280;31781;54.094;13.428;2022-08-04T02:02:39;101480.22;;;22.60;59.54
46045;BME280;31781;54.094;13.428;2022-08-04T02:08:12;101478.56;;;22.59;56.50
46045;BME280;31781;54.094;13.428;2022-08-04T02:13:22;101484.91;;;22.49;57.11
46045;BME280;31781;54.094;13.428;2022-08-04T02:18:31;101488.72;;;22.38;60.04
46045;BME280;31781;54.094;13.428;2022-08-04T02:23:40;101490.06;;;22.30;60.79
46045;BME280;31781;54.094;13.428;2022-08-04T02:28:46;101488.38;;;22.24;59.05
46045;BME280;31781;54.094;13.428;2022-08-04T02:33:57;101491.13;;;22.19;61.01
46045;BME280;31781;54.094;13.428;2022-08-04T02:39:09;101493.00;;;22.14;58.58
46045;BME280;31781;54.094;13.428;2022-08-04T02:44:13;101484.09;;;22.07;59.11
46045;BME280;31781;54.094;13.428;2022-08-04T02:49:21;101475.19;;;22.00;60.27
46045;BME280;31781;54.094;13.428;2022-08-04T02:54:34;101476.25;;;21.94;59.69
46045;BME280;31781;54.094;13.428;2022-08-04T02:59:50;101471.81;;;21.93;57.21
46045;BME280;31781;54.094;13.428;2022-08-04T03:04:56;101464.53;;;21.87;57.86
46045;BME280;31781;54.094;13.428;2022-08-04T03:10:32;101459.78;;;21.82;59.97
46045;BME280;31781;54.094;13.428;2022-08-04T03:15:58;101463.09;;;21.79;57.80
46045;BME280;31781;54.094;13.428;2022-08-04T03:21:25;101457.78;;;21.72;58.92
46045;BME280;31781;54.094;13.428;2022-08-04T03:27:01;101453.87;;;21.68;57.56
46045;BME280;31781;54.094;13.428;2022-08-04T03:32:42;101457.69;;;21.62;56.94
46045;BME280;31781;54.094;13.428;2022-08-04T03:38:11;101462.69;;;21.60;57.03
46045;BME280;31781;54.094;13.428;2022-08-04T03:43:53;101460.69;;;21.56;58.08
46045;BME280;31781;54.094;13.428;2022-08-04T03:54:52;101461.19;;;21.48;57.67
46045;BME280;31781;54.094;13.428;2022-08-04T04:05:43;101460.16;;;21.54;56.91
46045;BME280;31781;54.094;13.428;2022-08-04T04:11:22;101455.44;;;21.54;57.89
46045;BME280;31781;54.094;13.428;2022-08-04T04:16:48;101461.22;;;21.53;57.84
46045;BME280;31781;54.094;13.428;2022-08-04T04:22:14;101465.41;;;21.55;58.12
46045;BME280;31781;54.094;13.428;2022-08-04T04:27:28;101457.41;;;21.59;57.88
46045;BME280;31781;54.094;13.428;2022-08-04T04:32:56;101465.22;;;21.67;59.16
46045;BME280;31781;54.094;13.428;2022-08-04T04:38:41;101473.03;;;21.75;59.54
46045;BME280;31781;54.094;13.428;2022-08-04T04:44:01;101470.91;;;21.87;57.03
46045;BME280;31781;54.094;13.428;2022-08-04T04:49:13;101465.72;;;21.96;57.58
46045;BME280;31781;54.094;13.428;2022-08-04T04:54:32;101454.44;;;22.07;58.95
46045;BME280;31781;54.094;13.428;2022-08-04T04:59:38;101466.22;;;22.24;57.07
46045;BME280;31781;54.094;13.428;2022-08-04T05:05:10;101461.84;;;22.39;58.46
46045;BME280;31781;54.094;13.428;2022-08-04T05:10:34;101456.38;;;22.59;55.94
46045;BME280;31781;54.094;13.428;2022-08-04T05:21:10;101464.03;;;23.04;55.46
46045;BME280;31781;54.094;13.428;2022-08-04T05:26:17;101467.09;;;23.17;54.98
46045;BME280;31781;54.094;13.428;2022-08-04T05:31:27;101456.59;;;23.35;55.60
46045;BME280;31781;54.094;13.428;2022-08-04T05:36:39;101460.78;;;23.52;55.07
46045;BME280;31781;54.094;13.428;2022-08-04T05:41:43;101461.06;;;23.76;53.63
46045;BME280;31781;54.094;13.428;2022-08-04T05:46:57;101457.13;;;23.97;53.87
46045;BME280;31781;54.094;13.428;2022-08-04T05:52:07;101446.81;;;24.23;53.72
46045;BME280;31781;54.094;13.428;2022-08-04T05:57:11;101446.13;;;24.51;52.57
46045;BME280;31781;54.094;13.428;2022-08-04T06:02:17;101439.06;;;24.79;52.41
46045;BME280;31781;54.094;13.428;2022-08-04T06:07:26;101441.66;;;25.09;52.04
46045;BME280;31781;54.094;13.428;2022-08-04T06:12:35;101442.00;;;25.42;50.90
46045;BME280;31781;54.094;13.428;2022-08-04T06:17:41;101446.19;;;25.73;49.86
46045;BME280;31781;54.094;13.428;2022-08-04T06:23:14;101449.19;;;26.05;48.77
46045;BME280;31781;54.094;13.428;2022-08-04T06:28:18;101447.72;;;26.42;48.59
46045;BME280;31781;54.094;13.428;2022-08-04T06:33:21;101448.97;;;26.73;47.63
46045;BME280;31781;54.094;13.428;2022-08-04T06:38:31;101457.69;;;27.09;46.42
46045;BME280;31781;54.094;13.428;2022-08-04T06:43:35;101459.12;;;27.44;45.93
46045;BME280;31781;54.094;13.428;2022-08-04T06:48:44;101449.91;;;27.76;44.85
46045;BME280;31781;54.094;13.428;2022-08-04T06:53:53;101450.13;;;28.12;43.62
46045;BME280;31781;54.094;13.428;2022-08-04T06:58:58;101448.28;;;28.48;43.55
46045;BME280;31781;54.094;13.428;2022-08-04T07:04:03;101436.31;;;28.83;42.34
46045;BME280;31781;54.094;13.428;2022-08-04T07:09:12;101434.97;;;29.17;40.40
46045;BME280;31781;54.094;13.428;2022-08-04T07:14:15;101442.56;;;29.52;42.08
46045;BME280;31781;54.094;13.428;2022-08-04T07:19:19;101440.81;;;29.87;39.09
46045;BME280;31781;54.094;13.428;2022-08-04T07:29:40;101440.31;;;30.64;40.85
46045;BME280;31781;54.094;13.428;2022-08-04T07:34:43;101443.53;;;30.97;39.43
46045;BME280;31781;54.094;13.428;2022-08-04T07:39:50;101440.56;;;31.36;36.44
46045;BME280;31781;54.094;13.428;2022-08-04T07:44:59;101445.38;;;31.70;35.13
46045;BME280;31781;54.094;13.428;2022-08-04T07:55:21;101429.03;;;32.48;36.89
46045;BME280;31781;54.094;13.428;2022-08-04T08:00:24;101431.22;;;32.71;35.01
46045;BME280;31781;54.094;13.428;2022-08-04T08:05:27;101419.06;;;33.00;33.09
46045;BME280;31781;54.094;13.428;2022-08-04T08:10:35;101428.91;;;33.36;33.07
46045;BME280;31781;54.094;13.428;2022-08-04T08:15:40;101424.59;;;33.71;34.89
46045;BME280;31781;54.094;13.428;2022-08-04T08:20:43;101417.84;;;34.08;31.50
46045;BME280;31781;54.094;13.428;2022-08-04T08:25:53;101418.59;;;34.42;30.87
46045;BME280;31781;54.094;13.428;2022-08-04T08:30:55;101412.81;;;34.75;32.56
46045;BME280;31781;54.094;13.428;2022-08-04T08:41:41;101411.88;;;35.50;32.63
46045;BME280;31781;54.094;13.428;2022-08-04T08:47:03;101410.22;;;35.77;31.05
46045;BME280;31781;54.094;13.428;2022-08-04T08:52:20;101400.19;;;36.11;31.25
46045;BME280;31781;54.094;13.428;2022-08-04T08:58:04;101400.25;;;36.46;30.98
46045;BME280;31781;54.094;13.428;2022-08-04T09:03:34;101398.00;;;36.86;31.22
46045;BME280;31781;54.094;13.428;2022-08-04T09:09:09;101390.31;;;37.25;30.38
46045;BME280;31781;54.094;13.428;2022-08-04T09:14:27;101393.09;;;37.60;30.61
46045;BME280;31781;54.094;13.428;2022-08-04T09:19:39;101386.50;;;37.98;28.63
46045;BME280;31781;54.094;13.428;2022-08-04T09:24:49;101383.13;;;38.15;27.98
46045;BME280;31781;54.094;13.428;2022-08-04T09:30:05;101384.62;;;38.32;27.08
46045;BME280;31781;54.094;13.428;2022-08-04T09:35:31;101387.94;;;38.60;27.20
46045;BME280;31781;54.094;13.428;2022-08-04T09:40:42;101387.81;;;38.79;28.53
46045;BME280;31781;54.094;13.428;2022-08-04T09:51:48;101377.91;;;38.70;28.23
46045;BME280;31781;54.094;13.428;2022-08-04T09:57:06;101372.37;;;38.51;27.24
46045;BME280;31781;54.094;13.428;2022-08-04T10:02:14;101376.31;;;38.42;26.01
46045;BME280;31781;54.094;13.428;2022-08-04T10:07:43;101376.66;;;38.41;24.58
46045;BME280;31781;54.094;13.428;2022-08-04T10:13:23;101379.50;;;38.41;27.80
46045;BME280;31781;54.094;13.428;2022-08-04T10:18:38;101379.31;;;38.53;27.21
46045;BME280;31781;54.094;13.428;2022-08-04T10:23:59;101361.88;;;38.84;26.83
46045;BME280;31781;54.094;13.428;2022-08-04T10:29:11;101362.34;;;39.20;25.15
46045;BME280;31781;54.094;13.428;2022-08-04T10:34:19;101353.34;;;39.51;24.12
46045;BME280;31781;54.094;13.428;2022-08-04T10:39:36;101350.03;;;39.82;22.51
46045;BME280;31781;54.094;13.428;2022-08-04T10:44:53;101354.00;;;40.18;25.30
46045;BME280;31781;54.094;13.428;2022-08-04T10:50:00;101337.12;;;40.50;24.35
46045;BME280;31781;54.094;13.428;2022-08-04T10:55:13;101345.81;;;40.68;22.02
46045;BME280;31781;54.094;13.428;2022-08-04T11:00:22;101341.75;;;40.69;23.67
46045;BME280;31781;54.094;13.428;2022-08-04T11:05:30;101335.69;;;40.84;22.30
46045;BME280;31781;54.094;13.428;2022-08-04T11:10:54;101326.75;;;40.97;22.81
46045;BME280;31781;54.094;13.428;2022-08-04T11:16:01;101324.44;;;41.20;23.37
46045;BME280;31781;54.094;13.428;2022-08-04T11:21:11;101326.97;;;41.46;21.68
46045;BME280;31781;54.094;13.428;2022-08-04T11:26:23;101311.47;;;41.68;22.07
46045;BME280;31781;54.094;13.428;2022-08-04T11:31:32;101322.50;;;41.88;22.70
46045;BME280;31781;54.094;13.428;2022-08-04T11:36:41;101310.66;;;41.96;19.35
46045;BME280;31781;54.094;13.428;2022-08-04T11:41:56;101328.63;;;42.00;21.16
46045;BME280;31781;54.094;13.428;2022-08-04T11:47:02;101311.87;;;42.13;21.40
46045;BME280;31781;54.094;13.428;2022-08-04T11:52:08;101313.91;;;42.30;20.85
46045;BME280;31781;54.094;13.428;2022-08-04T11:57:17;101312.22;;;42.57;19.42
46045;BME280;31781;54.094;13.428;2022-08-04T12:02:36;101315.00;;;42.82;20.17
46045;BME280;31781;54.094;13.428;2022-08-04T12:07:50;101302.22;;;43.01;21.41
46045;BME280;31781;54.094;13.428;2022-08-04T12:13:09;101305.88;;;43.12;20.05
46045;BME280;31781;54.094;13.428;2022-08-04T12:18:20;101301.31;;;43.22;21.22
46045;BME280;31781;54.094;13.428;2022-08-04T12:23:31;101298.78;;;43.34;19.47
46045;BME280;31781;54.094;13.428;2022-08-04T12:28:42;101293.41;;;43.40;19.72
46045;BME280;31781;54.094;13.428;2022-08-04T12:34:09;101285.19;;;43.49;20.73
46045;BME280;31781;54.094;13.428;2022-08-04T12:44:37;101278.03;;;43.71;21.01
46045;BME280;31781;54.094;13.428;2022-08-04T12:49:59;101276.25;;;43.88;21.84
46045;BME280;31781;54.094;13.428;2022-08-04T13:00:33;101254.53;;;43.90;20.18
46045;BME280;31781;54.094;13.428;2022-08-04T13:05:52;101257.41;;;43.90;18.71
46045;BME280;31781;54.094;13.428;2022-08-04T13:10:56;101250.16;;;43.75;19.71
46045;BME280;31781;54.094;13.428;2022-08-04T13:16:02;101254.25;;;43.74;17.69
46045;BME280;31781;54.094;13.428;2022-08-04T13:21:16;101240.84;;;43.64;17.80
46045;BME280;31781;54.094;13.428;2022-08-04T13:26:52;101228.56;;;43.63;19.32
46045;BME280;31781;54.094;13.428;2022-08-04T13:31:57;101237.94;;;43.68;19.79
46045;BME280;31781;54.094;13.428;2022-08-04T13:37:07;101231.38;;;43.67;17.93
46045;BME280;31781;54.094;13.428;2022-08-04T13:42:23;101228.69;;;43.49;18.92
46045;BME280;31781;54.094;13.428;2022-08-04T13:47:29;101216.97;;;43.26;18.24
46045;BME280;31781;54.094;13.428;2022-08-04T13:52:38;101218.03;;;42.84;18.25
46045;BME280;31781;54.094;13.428;2022-08-04T13:57:44;101200.63;;;42.47;19.70
46045;BME280;31781;54.094;13.428;2022-08-04T14:02:49;101203.59;;;42.22;18.35
46045;BME280;31781;54.094;13.428;2022-08-04T14:08:05;101196.66;;;42.23;19.55
46045;BME280;31781;54.094;13.428;2022-08-04T14:13:09;101183.97;;;42.35;21.25
46045;BME280;31781;54.094;13.428;2022-08-04T14:18:19;101176.13;;;42.46;19.20
46045;BME280;31781;54.094;13.428;2022-08-04T14:23:28;101171.16;;;42.57;20.46
46045;BME280;31781;54.094;13.428;2022-08-04T14:28:33;101171.56;;;42.59;19.93
46045;BME280;31781;54.094;13.428;2022-08-04T14:33:56;101163.00;;;42.52;18.31
46045;BME280;31781;54.094;13.428;2022-08-04T14:39:11;101154.53;;;42.34;17.92
46045;BME280;31781;54.094;13.428;2022-08-04T14:44:14;101155.37;;;42.17;19.80
46045;BME280;31781;54.094;13.428;2022-08-04T14:49:17;101147.22;;;42.15;18.96
46045;BME280;31781;54.094;13.428;2022-08-04T14:54:32;101142.72;;;42.14;18.06
46045;BME280;31781;54.094;13.428;2022-08-04T14:59:40;101140.69;;;42.15;21.23
46045;BME280;31781;54.094;13.428;2022-08-04T15:05:02;101123.12;;;42.23;19.57
46045;BME280;31781;54.094;13.428;2022-08-04T15:10:20;101126.72;;;42.38;20.35
46045;BME280;31781;54.094;13.428;2022-08-04T15:15:40;101125.03;;;42.44;20.39
46045;BME280;31781;54.094;13.428;2022-08-04T15:21:04;101123.06;;;42.34;19.73
46045;BME280;31781;54.094;13.428;2022-08-04T15:26:34;101112.47;;;42.28;19.99
46045;BME280;31781;54.094;13.428;2022-08-04T15:31:40;101112.06;;;42.18;20.09
46045;BME280;31781;54.094;13.428;2022-08-04T15:37:05;101109.66;;;42.10;19.34
46045;BME280;31781;54.094;13.428;2022-08-04T15:42:20;101108.09;;;41.98;17.57
46045;BME280;31781;54.094;13.428;2022-08-04T15:47:25;101101.56;;;41.98;20.01
46045;BME280;31781;54.094;13.428;2022-08-04T15:52:28;101096.25;;;41.93;17.79
46045;BME280;31781;54.094;13.428;2022-08-04T15:58:02;101086.88;;;41.89;17.26
46045;BME280;31781;54.094;13.428;2022-08-04T16:03:48;101094.63;;;41.88;20.22
46045;BME280;31781;54.094;13.428;2022-08-04T16:09:03;101091.37;;;41.90;20.58
46045;BME280;31781;54.094;13.428;2022-08-04T16:14:07;101087.72;;;41.78;17.85
46045;BME280;31781;54.094;13.428;2022-08-04T16:19:24;101085.28;;;41.70;18.30
46045;BME280;31781;54.094;13.428;2022-08-04T16:24:36;101076.34;;;41.57;19.85
46045;BME280;31781;54.094;13.428;2022-08-04T16:29:40;101082.50;;;41.42;18.02
46045;BME280;31781;54.094;13.428;2022-08-04T16:34:52;101081.69;;;41.27;17.86
46045;BME280;31781;54.094;13.428;2022-08-04T16:40:22;101077.59;;;41.21;19.68
46045;BME280;31781;54.094;13.428;2022-08-04T16:45:42;101070.28;;;41.16;19.82
46045;BME280;31781;54.094;13.428;2022-08-04T16:50:53;101069.88;;;41.07;19.15
46045;BME280;31781;54.094;13.428;2022-08-04T16:55:56;101070.25;;;40.95;20.00
46045;BME280;31781;54.094;13.428;2022-08-04T17:01:06;101068.63;;;40.73;20.66
46045;BME280;31781;54.094;13.428;2022-08-04T17:06:15;101061.63;;;40.31;21.66
46045;BME280;31781;54.094;13.428;2022-08-04T17:16:39;101061.13;;;39.36;23.40
46045;BME280;31781;54.094;13.428;2022-08-04T17:21:43;101058.28;;;38.88;23.39
46045;BME280;31781;54.094;13.428;2022-08-04T17:26:46;101062.41;;;38.51;23.42
46045;BME280;31781;54.094;13.428;2022-08-04T17:32:00;101066.84;;;38.15;23.87
46045;BME280;31781;54.094;13.428;2022-08-04T17:37:04;101056.16;;;37.75;24.42
46045;BME280;31781;54.094;13.428;2022-08-04T17:42:28;101049.84;;;37.29;25.96
46045;BME280;31781;54.094;13.428;2022-08-04T17:47:47;101037.00;;;36.89;25.84
46045;BME280;31781;54.094;13.428;2022-08-04T17:52:58;101048.16;;;36.56;26.07
46045;BME280;31781;54.094;13.428;2022-08-04T17:58:15;101045.91;;;36.23;26.50
46045;BME280;31781;54.094;13.428;2022-08-04T18:03:27;101051.13;;;35.83;26.79
46045;BME280;31781;54.094;13.428;2022-08-04T18:08:30;101050.19;;;35.40;27.22
46045;BME280;31781;54.094;13.428;2022-08-04T18:13:42;101058.88;;;35.00;28.67
46045;BME280;31781;54.094;13.428;2022-08-04T18:19:06;101063.72;;;34.68;28.44
46045;BME280;31781;54.094;13.428;2022-08-04T18:24:09;101070.50;;;34.36;28.10
46045;BME280;31781;54.094;13.428;2022-08-04T18:29:12;101068.25;;;34.14;29.99
46045;BME280;31781;54.094;13.428;2022-08-04T18:34:37;101082.72;;;34.00;30.04
46045;BME280;31781;54.094;13.428;2022-08-04T18:39:55;101080.81;;;33.89;29.74
46045;BME280;31781;54.094;13.428;2022-08-04T18:45:18;101086.09;;;33.78;31.29
46045;BME280;31781;54.094;13.428;2022-08-04T18:50:26;101080.84;;;33.64;30.56
46045;BME280;31781;54.094;13.428;2022-08-04T18:55:49;101090.84;;;33.50;30.45
46045;BME280;31781;54.094;13.428;2022-08-04T19:00:58;101095.22;;;33.35;31.30
46045;BME280;31781;54.094;13.428;2022-08-04T19:06:07;101099.69;;;33.24;31.33
46045;BME280;31781;54.094;13.428;2022-08-04T19:11:10;101117.09;;;33.14;30.99
46045;BME280;31781;54.094;13.428;2022-08-04T19:16:33;101227.56;;;32.95;31.41
46045;BME280;31781;54.094;13.428;2022-08-04T19:21:43;101279.72;;;32.68;31.63
46045;BME280;31781;54.094;13.428;2022-08-04T19:27:03;101312.13;;;32.33;31.69
46045;BME280;31781;54.094;13.428;2022-08-04T19:32:08;101315.28;;;32.02;32.66
46045;BME280;31781;54.094;13.428;2022-08-04T19:37:21;101324.69;;;31.68;34.41
46045;BME280;31781;54.094;13.428;2022-08-04T19:42:44;101306.59;;;31.31;35.34
46045;BME280;31781;54.094;13.428;2022-08-04T19:47:51;101310.91;;;30.86;38.77
46045;BME280;31781;54.094;13.428;2022-08-04T19:53:20;101286.78;;;30.42;39.87
46045;BME280;31781;54.094;13.428;2022-08-04T19:58:38;101264.41;;;29.94;40.30
46045;BME280;31781;54.094;13.428;2022-08-04T20:03:41;101266.38;;;29.54;41.78
46045;BME280;31781;54.094;13.428;2022-08-04T20:09:10;101253.69;;;29.26;42.39
46045;BME280;31781;54.094;13.428;2022-08-04T20:14:27;101211.72;;;29.04;40.92
46045;BME280;31781;54.094;13.428;2022-08-04T20:19:33;101204.34;;;28.85;46.04
46045;BME280;31781;54.094;13.428;2022-08-04T20:24:42;101229.94;;;28.70;45.36
46045;BME280;31781;54.094;13.428;2022-08-04T20:30:00;101260.75;;;28.57;43.22
46045;BME280;31781;54.094;13.428;2022-08-04T20:35:19;101296.06;;;28.44;46.65
46045;BME280;31781;54.094;13.428;2022-08-04T20:45:42;101283.25;;;28.29;42.40
46045;BME280;31781;54.094;13.428;2022-08-04T20:50:59;101262.88;;;28.15;44.61
46045;BME280;31781;54.094;13.428;2022-08-04T20:56:02;101265.34;;;28.03;47.43
46045;BME280;31781;54.094;13.428;2022-08-04T21:01:12;101236.25;;;27.90;47.43
46045;BME280;31781;54.094;13.428;2022-08-04T21:06:16;101237.28;;;27.81;45.38
46045;BME280;31781;54.094;13.428;2022-08-04T21:11:21;101219.72;;;27.67;48.25
46045;BME280;31781;54.094;13.428;2022-08-04T21:16:29;101214.94;;;27.53;47.90
46045;BME280;31781;54.094;13.428;2022-08-04T21:21:52;101210.09;;;27.45;45.86
46045;BME280;31781;54.094;13.428;2022-08-04T21:26:56;101213.88;;;27.36;48.60
46045;BME280;31781;54.094;13.428;2022-08-04T21:32:05;101224.63;;;27.29;49.11
46045;BME280;31781;54.094;13.428;2022-08-04T21:37:27;101254.03;;;27.26;45.22
46045;BME280;31781;54.094;13.428;2022-08-04T21:42:50;101286.78;;;27.07;47.54
46045;BME280;31781;54.094;13.428;2022-08-04T21:47:54;101316.31;;;26.94;50.34
46045;BME280;31781;54.094;13.428;2022-08-04T21:53:02;101319.00;;;26.86;51.60
46045;BME280;31781;54.094;13.428;2022-08-04T21:58:20;101329.31;;;26.85;46.56
46045;BME280;31781;54.094;13.428;2022-08-04T22:03:33;101308.53;;;26.73;48.70
46045;BME280;31781;54.094;13.428;2022-08-04T22:08:54;101293.91;;;26.62;51.78
46045;BME280;31781;54.094;13.428;2022-08-04T22:14:05;101284.87;;;26.51;52.75
46045;BME280;31781;54.094;13.428;2022-08-04T22:19:12;101265.41;;;26.46;49.25
46045;BME280;31781;54.094;13.428;2022-08-04T22:24:24;101262.16;;;26.39;51.74
46045;BME280;31781;54.094;13.428;2022-08-04T22:29:35;101263.84;;;26.16;53.60
46045;BME280;31781;54.094;13.428;2022-08-04T22:34:45;101254.13;;;25.95;51.24
46045;BME280;31781;54.094;13.428;2022-08-04T22:39:53;101262.41;;;25.82;54.57
46045;BME280;31781;54.094;13.428;2022-08-04T22:45:03;101268.09;;;25.72;55.41
46045;BME280;31781;54.094;13.428;2022-08-04T22:50:08;101275.44;;;25.62;52.45
46045;BME280;31781;54.094;13.428;2022-08-04T22:55:28;101270.25;;;25.51;55.67
46045;BME280;31781;54.094;13.428;2022-08-04T23:00:56;101246.41;;;25.40;55.90
46045;BME280;31781;54.094;13.428;2022-08-04T23:06:02;101217.81;;;25.34;52.53
46045;BME280;31781;54.094;13.428;2022-08-04T23:11:06;101215.66;;;25.26;54.56
46045;BME280;31781;54.094;13.428;2022-08-04T23:16:15;101209.00;;;25.22;54.85
46045;BME280;31781;54.094;13.428;2022-08-04T23:21:18;101222.69;;;25.18;52.77
46045;BME280;31781;54.094;13.428;2022-08-04T23:26:25;101235.28;;;25.16;55.57
46045;BME280;31781;54.094;13.428;2022-08-04T23:31:35;101232.75;;;25.14;56.91
46045;BME280;31781;54.094;13.428;2022-08-04T23:36:41;101223.56;;;25.14;52.88
46045;BME280;31781;54.094;13.428;2022-08-04T23:41:47;101194.66;;;25.10;56.51
46045;BME280;31781;54.094;13.428;2022-08-04T23:47:03;101191.41;;;25.03;57.09
46045;BME280;31781;54.094;13.428;2022-08-04T23:52:07;101179.25;;;24.94;54.11
46045;BME280;31781;54.094;13.428;2022-08-04T23:57:24;101202.16;;;24.86;57.86
